sensor_id;sensor_type;location;lat;lon;timestamp;P1;durP1;ratioP1;P2;durP2;ratioP2
11935;SDS011;6027;48.576;9.180;2024-02-16T00:00:07;5.28;;;3.28;;
11935;SDS011;6027;48.576;9.180;2024-02-16T00:02:33;5.10;;;3.05;;
11935;SDS011;6027;48.576;9.180;2024-02-16T00:04:59;5.25;;;3.20;;
11935;SDS011;6027;48.576;9.180;2024-02-16T00:07:24;3.85;;;3.00;;
11935;SDS011;6027;48.576;9.180;2024-02-16T00:09:50;4.10;;;3.22;;
11935;SDS011;6027;48.576;9.180;2024-02-16T00:12:15;4.55;;;2.95;;
11935;SDS011;6027;48.576;9.180;2024-02-16T00:14:42;5.30;;;3.35;;
11935;SDS011;6027;48.576;9.180;2024-02-16T00:17:11;3.92;;;3.10;;
11935;SDS011;6027;48.576;9.180;2024-02-16T00:19:37;4.97;;;3.75;;
11935;SDS011;6027;48.576;9.180;2024-02-16T00:22:02;7.65;;;4.10;;
11935;SDS011;6027;48.576;9.180;2024-02-16T00:24:28;3.95;;;3.55;;
11935;SDS011;6027;48.576;9.180;2024-02-16T00:26:53;4.18;;;3.75;;
11935;SDS011;6027;48.576;9.180;2024-02-16T00:29:18;4.78;;;3.50;;
11935;SDS011;6027;48.576;9.180;2024-02-16T00:31:47;3.70;;;3.20;;
11935;SDS011;6027;48.576;9.180;2024-02-16T00:34:12;5.97;;;3.85;;
11935;SDS011;6027;48.576;9.180;2024-02-16T00:36:37;4.18;;;3.55;;
11935;SDS011;6027;48.576;9.180;2024-02-16T00:39:03;4.95;;;3.40;;
11935;SDS011;6027;48.576;9.180;2024-02-16T00:41:28;3.95;;;3.38;;
11935;SDS011;6027;48.576;9.180;2024-02-16T00:43:54;5.07;;;3.42;;
11935;SDS011;6027;48.576;9.180;2024-02-16T00:46:19;4.15;;;3.30;;
11935;SDS011;6027;48.576;9.180;2024-02-16T00:48:48;3.78;;;3.42;;
11935;SDS011;6027;48.576;9.180;2024-02-16T00:53:41;5.68;;;3.58;;
11935;SDS011;6027;48.576;9.180;2024-02-16T00:56:07;6.43;;;3.28;;
11935;SDS011;6027;48.576;9.180;2024-02-16T00:58:33;7.85;;;3.80;;
11935;SDS011;6027;48.576;9.180;2024-02-16T01:01:04;4.63;;;3.70;;
11935;SDS011;6027;48.576;9.180;2024-02-16T01:03:29;6.35;;;4.05;;
11935;SDS011;6027;48.576;9.180;2024-02-16T01:05:54;6.68;;;3.80;;
11935;SDS011;6027;48.576;9.180;2024-02-16T01:08:20;4.90;;;3.85;;
11935;SDS011;6027;48.576;9.180;2024-02-16T01:10:48;4.72;;;3.53;;
11935;SDS011;6027;48.576;9.180;2024-02-16T01:13:14;5.45;;;3.97;;
11935;SDS011;6027;48.576;9.180;2024-02-16T01:15:39;6.55;;;3.85;;
11935;SDS011;6027;48.576;9.180;2024-02-16T01:18:06;5.90;;;4.13;;
11935;SDS011;6027;48.576;9.180;2024-02-16T01:20:31;6.55;;;4.20;;
11935;SDS011;6027;48.576;9.180;2024-02-16T01:22:57;5.50;;;3.88;;
11935;SDS011;6027;48.576;9.180;2024-02-16T01:25:23;4.50;;;4.10;;
11935;SDS011;6027;48.576;9.180;2024-02-16T01:27:48;5.85;;;4.78;;
11935;SDS011;6027;48.576;9.180;2024-02-16T01:30:13;5.63;;;4.65;;
11935;SDS011;6027;48.576;9.180;2024-02-16T01:32:40;7.07;;;4.70;;
11935;SDS011;6027;48.576;9.180;2024-02-16T01:35:06;5.80;;;4.28;;
11935;SDS011;6027;48.576;9.180;2024-02-16T01:37:32;5.90;;;4.40;;
11935;SDS011;6027;48.576;9.180;2024-02-16T01:39:58;5.47;;;4.40;;
11935;SDS011;6027;48.576;9.180;2024-02-16T01:42:24;7.97;;;4.50;;
11935;SDS011;6027;48.576;9.180;2024-02-16T01:44:50;6.18;;;4.68;;
11935;SDS011;6027;48.576;9.180;2024-02-16T01:47:16;5.65;;;4.55;;
11935;SDS011;6027;48.576;9.180;2024-02-16T01:49:44;6.55;;;4.70;;
11935;SDS011;6027;48.576;9.180;2024-02-16T01:52:09;5.75;;;4.60;;
11935;SDS011;6027;48.576;9.180;2024-02-16T01:54:35;5.53;;;4.53;;
11935;SDS011;6027;48.576;9.180;2024-02-16T01:57:01;5.70;;;4.35;;
11935;SDS011;6027;48.576;9.180;2024-02-16T01:59:27;6.90;;;4.82;;
11935;SDS011;6027;48.576;9.180;2024-02-16T02:01:53;5.35;;;4.13;;
11935;SDS011;6027;48.576;9.180;2024-02-16T02:04:18;6.82;;;4.47;;
11935;SDS011;6027;48.576;9.180;2024-02-16T02:06:45;5.32;;;4.18;;
11935;SDS011;6027;48.576;9.180;2024-02-16T02:09:10;6.18;;;4.47;;
11935;SDS011;6027;48.576;9.180;2024-02-16T02:11:35;7.43;;;4.45;;
11935;SDS011;6027;48.576;9.180;2024-02-16T02:14:02;6.88;;;3.92;;
11935;SDS011;6027;48.576;9.180;2024-02-16T02:16:28;6.38;;;4.40;;
11935;SDS011;6027;48.576;9.180;2024-02-16T02:18:53;4.20;;;3.80;;
11935;SDS011;6027;48.576;9.180;2024-02-16T02:21:19;6.57;;;4.78;;
11935;SDS011;6027;48.576;9.180;2024-02-16T02:23:44;6.93;;;5.05;;
11935;SDS011;6027;48.576;9.180;2024-02-16T02:26:13;8.10;;;5.63;;
11935;SDS011;6027;48.576;9.180;2024-02-16T02:28:39;10.00;;;6.93;;
11935;SDS011;6027;48.576;9.180;2024-02-16T02:31:05;7.72;;;6.03;;
11935;SDS011;6027;48.576;9.180;2024-02-16T02:33:30;10.95;;;9.00;;
11935;SDS011;6027;48.576;9.180;2024-02-16T02:35:56;10.40;;;8.93;;
11935;SDS011;6027;48.576;9.180;2024-02-16T02:38:21;6.97;;;6.20;;
11935;SDS011;6027;48.576;9.180;2024-02-16T02:40:46;5.20;;;4.30;;
11935;SDS011;6027;48.576;9.180;2024-02-16T02:43:12;5.07;;;4.57;;
11935;SDS011;6027;48.576;9.180;2024-02-16T02:45:37;6.55;;;4.75;;
11935;SDS011;6027;48.576;9.180;2024-02-16T02:48:03;4.97;;;4.43;;
11935;SDS011;6027;48.576;9.180;2024-02-16T02:50:28;6.10;;;4.82;;
11935;SDS011;6027;48.576;9.180;2024-02-16T02:52:54;5.72;;;4.47;;
11935;SDS011;6027;48.576;9.180;2024-02-16T02:55:19;19.63;;;14.88;;
11935;SDS011;6027;48.576;9.180;2024-02-16T02:57:44;15.40;;;11.45;;
11935;SDS011;6027;48.576;9.180;2024-02-16T03:00:10;12.15;;;9.48;;
11935;SDS011;6027;48.576;9.180;2024-02-16T03:02:39;9.05;;;7.07;;
11935;SDS011;6027;48.576;9.180;2024-02-16T03:05:05;8.63;;;5.78;;
11935;SDS011;6027;48.576;9.180;2024-02-16T03:07:35;6.35;;;4.68;;
11935;SDS011;6027;48.576;9.180;2024-02-16T03:10:01;7.20;;;4.80;;
11935;SDS011;6027;48.576;9.180;2024-02-16T03:12:28;5.45;;;4.55;;
11935;SDS011;6027;48.576;9.180;2024-02-16T03:14:53;8.52;;;4.60;;
11935;SDS011;6027;48.576;9.180;2024-02-16T03:17:18;7.93;;;4.50;;
11935;SDS011;6027;48.576;9.180;2024-02-16T03:19:44;5.20;;;4.18;;
11935;SDS011;6027;48.576;9.180;2024-02-16T03:22:10;4.80;;;3.70;;
11935;SDS011;6027;48.576;9.180;2024-02-16T03:24:35;4.55;;;4.00;;
11935;SDS011;6027;48.576;9.180;2024-02-16T03:27:00;6.97;;;4.45;;
11935;SDS011;6027;48.576;9.180;2024-02-16T03:29:26;6.63;;;3.72;;
11935;SDS011;6027;48.576;9.180;2024-02-16T03:31:52;5.00;;;3.75;;
11935;SDS011;6027;48.576;9.180;2024-02-16T03:34:17;5.38;;;3.70;;
11935;SDS011;6027;48.576;9.180;2024-02-16T03:36:43;6.55;;;4.05;;
11935;SDS011;6027;48.576;9.180;2024-02-16T03:39:09;4.90;;;3.88;;
11935;SDS011;6027;48.576;9.180;2024-02-16T03:41:35;6.20;;;4.40;;
11935;SDS011;6027;48.576;9.180;2024-02-16T03:44:00;6.53;;;3.70;;
11935;SDS011;6027;48.576;9.180;2024-02-16T03:46:26;4.43;;;3.90;;
11935;SDS011;6027;48.576;9.180;2024-02-16T03:48:52;4.68;;;3.78;;
11935;SDS011;6027;48.576;9.180;2024-02-16T03:51:18;5.13;;;3.80;;
11935;SDS011;6027;48.576;9.180;2024-02-16T03:53:43;5.43;;;4.18;;
11935;SDS011;6027;48.576;9.180;2024-02-16T03:56:12;6.28;;;4.03;;
11935;SDS011;6027;48.576;9.180;2024-02-16T03:58:43;4.38;;;3.60;;
11935;SDS011;6027;48.576;9.180;2024-02-16T04:01:08;5.57;;;3.78;;
11935;SDS011;6027;48.576;9.180;2024-02-16T04:03:34;4.53;;;3.60;;
11935;SDS011;6027;48.576;9.180;2024-02-16T04:06:00;5.35;;;3.67;;
11935;SDS011;6027;48.576;9.180;2024-02-16T04:08:26;5.72;;;3.67;;
11935;SDS011;6027;48.576;9.180;2024-02-16T04:10:52;5.78;;;3.90;;
11935;SDS011;6027;48.576;9.180;2024-02-16T04:13:17;5.45;;;3.90;;
11935;SDS011;6027;48.576;9.180;2024-02-16T04:15:43;4.68;;;3.80;;
11935;SDS011;6027;48.576;9.180;2024-02-16T04:18:08;5.63;;;3.80;;
11935;SDS011;6027;48.576;9.180;2024-02-16T04:20:34;5.68;;;4.18;;
11935;SDS011;6027;48.576;9.180;2024-02-16T04:23:00;4.47;;;3.70;;
11935;SDS011;6027;48.576;9.180;2024-02-16T04:25:26;5.82;;;3.60;;
11935;SDS011;6027;48.576;9.180;2024-02-16T04:27:51;5.93;;;3.67;;
11935;SDS011;6027;48.576;9.180;2024-02-16T04:30:17;5.53;;;4.00;;
11935;SDS011;6027;48.576;9.180;2024-02-16T04:32:42;5.03;;;4.00;;
11935;SDS011;6027;48.576;9.180;2024-02-16T04:35:08;5.50;;;3.72;;
11935;SDS011;6027;48.576;9.180;2024-02-16T04:37:37;9.82;;;3.72;;
11935;SDS011;6027;48.576;9.180;2024-02-16T04:40:04;3.50;;;3.20;;
11935;SDS011;6027;48.576;9.180;2024-02-16T04:42:31;5.85;;;3.45;;
11935;SDS011;6027;48.576;9.180;2024-02-16T04:44:56;6.55;;;4.00;;
11935;SDS011;6027;48.576;9.180;2024-02-16T04:47:22;5.00;;;3.70;;
11935;SDS011;6027;48.576;9.180;2024-02-16T04:49:47;4.72;;;4.18;;
11935;SDS011;6027;48.576;9.180;2024-02-16T04:52:13;4.70;;;3.90;;
11935;SDS011;6027;48.576;9.180;2024-02-16T04:54:38;5.90;;;3.88;;
11935;SDS011;6027;48.576;9.180;2024-02-16T04:57:05;5.70;;;4.15;;
11935;SDS011;6027;48.576;9.180;2024-02-16T04:59:31;6.18;;;3.70;;
11935;SDS011;6027;48.576;9.180;2024-02-16T05:01:56;7.07;;;4.00;;
11935;SDS011;6027;48.576;9.180;2024-02-16T05:04:22;4.85;;;3.60;;
11935;SDS011;6027;48.576;9.180;2024-02-16T05:06:47;5.70;;;3.60;;
11935;SDS011;6027;48.576;9.180;2024-02-16T05:09:13;4.30;;;3.70;;
11935;SDS011;6027;48.576;9.180;2024-02-16T05:11:45;4.43;;;3.60;;
11935;SDS011;6027;48.576;9.180;2024-02-16T05:14:10;5.15;;;3.80;;
11935;SDS011;6027;48.576;9.180;2024-02-16T05:16:45;4.80;;;3.70;;
11935;SDS011;6027;48.576;9.180;2024-02-16T05:19:12;4.53;;;3.70;;
11935;SDS011;6027;48.576;9.180;2024-02-16T05:21:38;6.05;;;4.13;;
11935;SDS011;6027;48.576;9.180;2024-02-16T05:24:03;5.55;;;4.53;;
11935;SDS011;6027;48.576;9.180;2024-02-16T05:26:29;7.18;;;4.90;;
11935;SDS011;6027;48.576;9.180;2024-02-16T05:28:54;6.47;;;5.13;;
11935;SDS011;6027;48.576;9.180;2024-02-16T05:31:20;7.00;;;4.95;;
11935;SDS011;6027;48.576;9.180;2024-02-16T05:33:47;7.53;;;5.30;;
11935;SDS011;6027;48.576;9.180;2024-02-16T05:36:17;7.88;;;6.00;;
11935;SDS011;6027;48.576;9.180;2024-02-16T05:38:46;9.98;;;6.60;;
11935;SDS011;6027;48.576;9.180;2024-02-16T05:41:12;10.30;;;7.13;;
11935;SDS011;6027;48.576;9.180;2024-02-16T05:43:38;9.30;;;6.40;;
11935;SDS011;6027;48.576;9.180;2024-02-16T05:46:04;7.65;;;5.60;;
11935;SDS011;6027;48.576;9.180;2024-02-16T05:48:33;7.35;;;6.03;;
11935;SDS011;6027;48.576;9.180;2024-02-16T05:51:02;8.30;;;5.80;;
11935;SDS011;6027;48.576;9.180;2024-02-16T05:53:28;7.72;;;5.95;;
11935;SDS011;6027;48.576;9.180;2024-02-16T05:55:53;6.13;;;4.78;;
11935;SDS011;6027;48.576;9.180;2024-02-16T05:58:20;4.95;;;4.10;;
11935;SDS011;6027;48.576;9.180;2024-02-16T06:00:46;6.30;;;4.32;;
11935;SDS011;6027;48.576;9.180;2024-02-16T06:03:12;9.00;;;5.07;;
11935;SDS011;6027;48.576;9.180;2024-02-16T06:05:38;7.38;;;4.70;;
11935;SDS011;6027;48.576;9.180;2024-02-16T06:08:06;5.75;;;4.35;;
11935;SDS011;6027;48.576;9.180;2024-02-16T06:10:32;8.90;;;5.30;;
11935;SDS011;6027;48.576;9.180;2024-02-16T06:12:58;6.30;;;4.97;;
11935;SDS011;6027;48.576;9.180;2024-02-16T06:15:23;9.80;;;5.43;;
11935;SDS011;6027;48.576;9.180;2024-02-16T06:17:49;7.15;;;5.90;;
11935;SDS011;6027;48.576;9.180;2024-02-16T06:20:15;7.75;;;5.57;;
11935;SDS011;6027;48.576;9.180;2024-02-16T06:22:41;8.80;;;5.35;;
11935;SDS011;6027;48.576;9.180;2024-02-16T06:25:07;9.50;;;5.32;;
11935;SDS011;6027;48.576;9.180;2024-02-16T06:27:33;7.70;;;4.47;;
11935;SDS011;6027;48.576;9.180;2024-02-16T06:29:58;5.25;;;4.15;;
11935;SDS011;6027;48.576;9.180;2024-02-16T06:32:24;5.40;;;4.70;;
11935;SDS011;6027;48.576;9.180;2024-02-16T06:34:51;7.53;;;5.63;;
11935;SDS011;6027;48.576;9.180;2024-02-16T06:37:17;5.55;;;4.78;;
11935;SDS011;6027;48.576;9.180;2024-02-16T06:39:42;7.80;;;4.70;;
11935;SDS011;6027;48.576;9.180;2024-02-16T06:42:08;9.35;;;5.22;;
11935;SDS011;6027;48.576;9.180;2024-02-16T06:44:36;7.53;;;5.50;;
11935;SDS011;6027;48.576;9.180;2024-02-16T06:47:01;12.02;;;7.40;;
11935;SDS011;6027;48.576;9.180;2024-02-16T06:49:27;11.10;;;6.20;;
11935;SDS011;6027;48.576;9.180;2024-02-16T06:51:53;6.82;;;5.13;;
11935;SDS011;6027;48.576;9.180;2024-02-16T06:54:18;7.90;;;4.82;;
11935;SDS011;6027;48.576;9.180;2024-02-16T06:56:43;10.20;;;6.90;;
11935;SDS011;6027;48.576;9.180;2024-02-16T06:59:09;7.63;;;5.55;;
11935;SDS011;6027;48.576;9.180;2024-02-16T07:01:34;5.20;;;4.22;;
11935;SDS011;6027;48.576;9.180;2024-02-16T07:04:00;5.47;;;4.00;;
11935;SDS011;6027;48.576;9.180;2024-02-16T07:06:26;6.15;;;4.82;;
11935;SDS011;6027;48.576;9.180;2024-02-16T07:08:52;5.72;;;4.50;;
11935;SDS011;6027;48.576;9.180;2024-02-16T07:11:17;7.85;;;4.53;;
11935;SDS011;6027;48.576;9.180;2024-02-16T07:13:46;4.68;;;4.18;;
11935;SDS011;6027;48.576;9.180;2024-02-16T07:16:12;6.10;;;4.78;;
11935;SDS011;6027;48.576;9.180;2024-02-16T07:18:37;5.22;;;4.38;;
11935;SDS011;6027;48.576;9.180;2024-02-16T07:21:03;8.68;;;6.22;;
11935;SDS011;6027;48.576;9.180;2024-02-16T07:23:29;7.30;;;5.53;;
11935;SDS011;6027;48.576;9.180;2024-02-16T07:25:55;7.65;;;4.80;;
11935;SDS011;6027;48.576;9.180;2024-02-16T07:28:24;6.13;;;4.82;;
11935;SDS011;6027;48.576;9.180;2024-02-16T07:30:53;6.57;;;5.35;;
11935;SDS011;6027;48.576;9.180;2024-02-16T07:33:19;7.10;;;5.32;;
11935;SDS011;6027;48.576;9.180;2024-02-16T07:35:44;7.30;;;5.00;;
11935;SDS011;6027;48.576;9.180;2024-02-16T07:38:10;6.75;;;4.40;;
11935;SDS011;6027;48.576;9.180;2024-02-16T07:40:36;7.32;;;4.40;;
11935;SDS011;6027;48.576;9.180;2024-02-16T07:43:02;6.55;;;4.60;;
11935;SDS011;6027;48.576;9.180;2024-02-16T07:45:28;5.80;;;4.60;;
11935;SDS011;6027;48.576;9.180;2024-02-16T07:47:54;4.65;;;3.92;;
11935;SDS011;6027;48.576;9.180;2024-02-16T07:50:19;5.07;;;4.38;;
11935;SDS011;6027;48.576;9.180;2024-02-16T07:52:49;4.70;;;4.30;;
11935;SDS011;6027;48.576;9.180;2024-02-16T07:55:16;4.38;;;3.97;;
11935;SDS011;6027;48.576;9.180;2024-02-16T07:57:46;5.20;;;3.72;;
11935;SDS011;6027;48.576;9.180;2024-02-16T08:00:12;4.43;;;4.03;;
11935;SDS011;6027;48.576;9.180;2024-02-16T08:02:38;6.85;;;3.25;;
11935;SDS011;6027;48.576;9.180;2024-02-16T08:05:05;5.47;;;3.85;;
11935;SDS011;6027;48.576;9.180;2024-02-16T08:07:31;7.38;;;4.10;;
11935;SDS011;6027;48.576;9.180;2024-02-16T08:09:56;5.28;;;3.95;;
11935;SDS011;6027;48.576;9.180;2024-02-16T08:12:22;5.15;;;3.78;;
11935;SDS011;6027;48.576;9.180;2024-02-16T08:14:47;6.38;;;4.13;;
11935;SDS011;6027;48.576;9.180;2024-02-16T08:17:13;5.13;;;3.40;;
11935;SDS011;6027;48.576;9.180;2024-02-16T08:19:38;6.47;;;3.88;;
11935;SDS011;6027;48.576;9.180;2024-02-16T08:22:05;6.10;;;3.80;;
11935;SDS011;6027;48.576;9.180;2024-02-16T08:24:32;7.45;;;4.25;;
11935;SDS011;6027;48.576;9.180;2024-02-16T08:26:58;5.07;;;3.63;;
11935;SDS011;6027;48.576;9.180;2024-02-16T08:29:23;4.13;;;3.20;;
11935;SDS011;6027;48.576;9.180;2024-02-16T08:31:50;4.50;;;3.22;;
11935;SDS011;6027;48.576;9.180;2024-02-16T08:34:16;3.90;;;3.10;;
11935;SDS011;6027;48.576;9.180;2024-02-16T08:36:45;5.13;;;2.65;;
11935;SDS011;6027;48.576;9.180;2024-02-16T08:39:13;3.90;;;3.10;;
11935;SDS011;6027;48.576;9.180;2024-02-16T08:41:39;3.58;;;2.40;;
11935;SDS011;6027;48.576;9.180;2024-02-16T08:44:06;4.07;;;2.40;;
11935;SDS011;6027;48.576;9.180;2024-02-16T08:46:38;2.60;;;2.00;;
11935;SDS011;6027;48.576;9.180;2024-02-16T08:49:04;3.75;;;2.67;;
11935;SDS011;6027;48.576;9.180;2024-02-16T08:51:34;4.22;;;2.30;;
11935;SDS011;6027;48.576;9.180;2024-02-16T08:53:59;3.45;;;2.60;;
11935;SDS011;6027;48.576;9.180;2024-02-16T08:56:25;2.45;;;1.88;;
11935;SDS011;6027;48.576;9.180;2024-02-16T08:58:51;2.78;;;2.30;;
11935;SDS011;6027;48.576;9.180;2024-02-16T09:01:17;4.53;;;2.30;;
11935;SDS011;6027;48.576;9.180;2024-02-16T09:03:42;3.72;;;2.15;;
11935;SDS011;6027;48.576;9.180;2024-02-16T09:06:08;3.15;;;2.28;;
11935;SDS011;6027;48.576;9.180;2024-02-16T09:08:33;4.28;;;2.38;;
11935;SDS011;6027;48.576;9.180;2024-02-16T09:11:02;6.00;;;3.10;;
11935;SDS011;6027;48.576;9.180;2024-02-16T09:13:33;2.65;;;2.22;;
11935;SDS011;6027;48.576;9.180;2024-02-16T09:16:01;4.13;;;2.20;;
11935;SDS011;6027;48.576;9.180;2024-02-16T09:18:27;3.30;;;2.30;;
11935;SDS011;6027;48.576;9.180;2024-02-16T09:20:52;3.13;;;2.28;;
11935;SDS011;6027;48.576;9.180;2024-02-16T09:23:18;4.57;;;2.30;;
11935;SDS011;6027;48.576;9.180;2024-02-16T09:25:43;4.80;;;2.10;;
11935;SDS011;6027;48.576;9.180;2024-02-16T09:28:11;2.13;;;1.90;;
11935;SDS011;6027;48.576;9.180;2024-02-16T09:30:37;3.00;;;2.10;;
11935;SDS011;6027;48.576;9.180;2024-02-16T09:33:06;3.25;;;2.08;;
11935;SDS011;6027;48.576;9.180;2024-02-16T09:35:32;2.45;;;1.92;;
11935;SDS011;6027;48.576;9.180;2024-02-16T09:37:58;3.15;;;1.92;;
11935;SDS011;6027;48.576;9.180;2024-02-16T09:40:23;4.72;;;2.00;;
11935;SDS011;6027;48.576;9.180;2024-02-16T09:42:49;4.00;;;2.17;;
11935;SDS011;6027;48.576;9.180;2024-02-16T09:45:15;2.08;;;1.77;;
11935;SDS011;6027;48.576;9.180;2024-02-16T09:47:44;5.80;;;2.00;;
11935;SDS011;6027;48.576;9.180;2024-02-16T09:50:12;3.80;;;2.20;;
11935;SDS011;6027;48.576;9.180;2024-02-16T09:52:39;3.97;;;2.25;;
11935;SDS011;6027;48.576;9.180;2024-02-16T09:55:07;4.40;;;2.13;;
11935;SDS011;6027;48.576;9.180;2024-02-16T09:57:36;4.38;;;2.00;;
11935;SDS011;6027;48.576;9.180;2024-02-16T10:00:02;2.60;;;1.85;;
11935;SDS011;6027;48.576;9.180;2024-02-16T10:02:38;3.30;;;2.20;;
11935;SDS011;6027;48.576;9.180;2024-02-16T10:05:16;2.53;;;1.83;;
11935;SDS011;6027;48.576;9.180;2024-02-16T10:07:44;4.20;;;2.10;;
11935;SDS011;6027;48.576;9.180;2024-02-16T10:10:28;4.47;;;2.70;;
11935;SDS011;6027;48.576;9.180;2024-02-16T10:15:26;2.95;;;2.00;;
11935;SDS011;6027;48.576;9.180;2024-02-16T10:17:58;3.40;;;2.10;;
11935;SDS011;6027;48.576;9.180;2024-02-16T10:20:28;5.85;;;2.88;;
11935;SDS011;6027;48.576;9.180;2024-02-16T10:23:04;3.10;;;2.05;;
11935;SDS011;6027;48.576;9.180;2024-02-16T10:25:40;4.35;;;1.98;;
11935;SDS011;6027;48.576;9.180;2024-02-16T10:28:10;2.03;;;1.65;;
11935;SDS011;6027;48.576;9.180;2024-02-16T10:30:40;4.28;;;2.00;;
11935;SDS011;6027;48.576;9.180;2024-02-16T10:33:08;2.70;;;1.90;;
11935;SDS011;6027;48.576;9.180;2024-02-16T10:35:37;3.65;;;2.00;;
11935;SDS011;6027;48.576;9.180;2024-02-16T10:38:04;4.90;;;2.15;;
11935;SDS011;6027;48.576;9.180;2024-02-16T10:40:32;4.50;;;1.90;;
11935;SDS011;6027;48.576;9.180;2024-02-16T10:43:00;2.03;;;1.80;;
11935;SDS011;6027;48.576;9.180;2024-02-16T10:45:29;4.60;;;1.80;;
11935;SDS011;6027;48.576;9.180;2024-02-16T10:47:56;4.20;;;1.98;;
11935;SDS011;6027;48.576;9.180;2024-02-16T10:50:21;3.55;;;1.80;;
11935;SDS011;6027;48.576;9.180;2024-02-16T10:52:48;4.80;;;2.00;;
11935;SDS011;6027;48.576;9.180;2024-02-16T10:55:15;2.40;;;1.60;;
11935;SDS011;6027;48.576;9.180;2024-02-16T10:57:41;4.88;;;1.65;;
11935;SDS011;6027;48.576;9.180;2024-02-16T11:00:10;1.58;;;1.42;;
11935;SDS011;6027;48.576;9.180;2024-02-16T11:02:55;4.30;;;2.00;;
11935;SDS011;6027;48.576;9.180;2024-02-16T11:08:02;1.80;;;1.42;;
11935;SDS011;6027;48.576;9.180;2024-02-16T11:10:28;3.15;;;1.80;;
11935;SDS011;6027;48.576;9.180;2024-02-16T11:12:54;1.88;;;1.70;;
11935;SDS011;6027;48.576;9.180;2024-02-16T11:15:32;2.67;;;1.50;;
11935;SDS011;6027;48.576;9.180;2024-02-16T11:18:01;3.13;;;1.60;;
11935;SDS011;6027;48.576;9.180;2024-02-16T11:20:27;3.13;;;1.80;;
11935;SDS011;6027;48.576;9.180;2024-02-16T11:22:53;5.32;;;1.80;;
11935;SDS011;6027;48.576;9.180;2024-02-16T11:25:33;3.25;;;2.15;;
11935;SDS011;6027;48.576;9.180;2024-02-16T11:27:59;3.97;;;1.95;;
11935;SDS011;6027;48.576;9.180;2024-02-16T11:30:25;2.28;;;1.55;;
11935;SDS011;6027;48.576;9.180;2024-02-16T11:32:51;2.05;;;1.80;;
11935;SDS011;6027;48.576;9.180;2024-02-16T11:35:17;2.72;;;1.85;;
11935;SDS011;6027;48.576;9.180;2024-02-16T11:37:43;3.50;;;2.22;;
11935;SDS011;6027;48.576;9.180;2024-02-16T11:40:13;3.38;;;2.00;;
11935;SDS011;6027;48.576;9.180;2024-02-16T11:42:39;4.25;;;1.35;;
11935;SDS011;6027;48.576;9.180;2024-02-16T11:45:05;4.43;;;1.70;;
11935;SDS011;6027;48.576;9.180;2024-02-16T11:47:31;3.63;;;1.98;;
11935;SDS011;6027;48.576;9.180;2024-02-16T11:50:06;4.13;;;1.50;;
11935;SDS011;6027;48.576;9.180;2024-02-16T11:52:37;1.88;;;1.58;;
11935;SDS011;6027;48.576;9.180;2024-02-16T11:55:03;4.70;;;1.65;;
11935;SDS011;6027;48.576;9.180;2024-02-16T11:57:29;4.03;;;1.70;;
11935;SDS011;6027;48.576;9.180;2024-02-16T11:59:55;3.38;;;1.77;;
11935;SDS011;6027;48.576;9.180;2024-02-16T12:02:23;2.45;;;1.85;;
11935;SDS011;6027;48.576;9.180;2024-02-16T12:04:57;3.05;;;1.77;;
11935;SDS011;6027;48.576;9.180;2024-02-16T12:07:25;1.90;;;1.45;;
11935;SDS011;6027;48.576;9.180;2024-02-16T12:10:02;2.05;;;1.45;;
11935;SDS011;6027;48.576;9.180;2024-02-16T12:12:31;6.63;;;1.58;;
11935;SDS011;6027;48.576;9.180;2024-02-16T12:14:56;3.70;;;1.70;;
11935;SDS011;6027;48.576;9.180;2024-02-16T12:17:23;4.50;;;1.73;;
11935;SDS011;6027;48.576;9.180;2024-02-16T12:19:49;3.25;;;1.52;;
11935;SDS011;6027;48.576;9.180;2024-02-16T12:22:17;1.63;;;1.35;;
11935;SDS011;6027;48.576;9.180;2024-02-16T12:24:50;2.58;;;1.50;;
11935;SDS011;6027;48.576;9.180;2024-02-16T12:27:16;1.75;;;1.30;;
11935;SDS011;6027;48.576;9.180;2024-02-16T12:29:41;3.55;;;1.60;;
11935;SDS011;6027;48.576;9.180;2024-02-16T12:32:07;6.25;;;1.65;;
11935;SDS011;6027;48.576;9.180;2024-02-16T12:34:36;7.97;;;1.95;;
11935;SDS011;6027;48.576;9.180;2024-02-16T12:37:05;5.28;;;1.70;;
11935;SDS011;6027;48.576;9.180;2024-02-16T12:39:35;3.88;;;1.70;;
11935;SDS011;6027;48.576;9.180;2024-02-16T12:42:01;2.25;;;1.58;;
11935;SDS011;6027;48.576;9.180;2024-02-16T12:44:26;2.40;;;1.60;;
11935;SDS011;6027;48.576;9.180;2024-02-16T12:46:51;3.13;;;1.63;;
11935;SDS011;6027;48.576;9.180;2024-02-16T12:49:17;3.28;;;1.55;;
11935;SDS011;6027;48.576;9.180;2024-02-16T12:51:46;2.90;;;1.50;;
11935;SDS011;6027;48.576;9.180;2024-02-16T12:54:13;2.55;;;1.63;;
11935;SDS011;6027;48.576;9.180;2024-02-16T12:56:39;4.55;;;1.70;;
11935;SDS011;6027;48.576;9.180;2024-02-16T12:59:05;2.80;;;1.25;;
11935;SDS011;6027;48.576;9.180;2024-02-16T13:01:30;2.83;;;1.50;;
11935;SDS011;6027;48.576;9.180;2024-02-16T13:03:56;5.22;;;1.90;;
11935;SDS011;6027;48.576;9.180;2024-02-16T13:06:21;5.13;;;1.75;;
11935;SDS011;6027;48.576;9.180;2024-02-16T13:08:47;3.17;;;1.40;;
11935;SDS011;6027;48.576;9.180;2024-02-16T13:11:12;2.75;;;1.75;;
11935;SDS011;6027;48.576;9.180;2024-02-16T13:13:38;3.42;;;1.70;;
11935;SDS011;6027;48.576;9.180;2024-02-16T13:16:03;3.15;;;1.60;;
11935;SDS011;6027;48.576;9.180;2024-02-16T13:18:29;3.20;;;1.80;;
11935;SDS011;6027;48.576;9.180;2024-02-16T13:20:54;4.63;;;1.58;;
11935;SDS011;6027;48.576;9.180;2024-02-16T13:23:20;4.00;;;1.60;;
11935;SDS011;6027;48.576;9.180;2024-02-16T13:25:45;2.33;;;1.60;;
11935;SDS011;6027;48.576;9.180;2024-02-16T13:28:11;2.42;;;1.35;;
11935;SDS011;6027;48.576;9.180;2024-02-16T13:30:36;3.30;;;1.52;;
11935;SDS011;6027;48.576;9.180;2024-02-16T13:33:03;5.82;;;1.83;;
11935;SDS011;6027;48.576;9.180;2024-02-16T13:35:29;4.00;;;1.73;;
11935;SDS011;6027;48.576;9.180;2024-02-16T13:37:54;4.32;;;1.60;;
11935;SDS011;6027;48.576;9.180;2024-02-16T13:40:20;5.32;;;2.20;;
11935;SDS011;6027;48.576;9.180;2024-02-16T13:42:46;3.50;;;2.00;;
11935;SDS011;6027;48.576;9.180;2024-02-16T13:45:11;3.00;;;1.40;;
11935;SDS011;6027;48.576;9.180;2024-02-16T13:47:37;6.30;;;1.73;;
11935;SDS011;6027;48.576;9.180;2024-02-16T13:50:06;2.60;;;1.70;;
11935;SDS011;6027;48.576;9.180;2024-02-16T13:52:32;3.35;;;1.60;;
11935;SDS011;6027;48.576;9.180;2024-02-16T13:54:57;4.43;;;1.63;;
11935;SDS011;6027;48.576;9.180;2024-02-16T13:57:23;3.50;;;1.85;;
11935;SDS011;6027;48.576;9.180;2024-02-16T13:59:48;4.05;;;2.00;;
11935;SDS011;6027;48.576;9.180;2024-02-16T14:02:14;4.20;;;1.67;;
11935;SDS011;6027;48.576;9.180;2024-02-16T14:04:40;3.65;;;1.80;;
11935;SDS011;6027;48.576;9.180;2024-02-16T14:07:06;2.97;;;1.70;;
11935;SDS011;6027;48.576;9.180;2024-02-16T14:09:31;1.85;;;1.33;;
11935;SDS011;6027;48.576;9.180;2024-02-16T14:11:57;4.70;;;1.65;;
11935;SDS011;6027;48.576;9.180;2024-02-16T14:14:27;3.75;;;1.85;;
11935;SDS011;6027;48.576;9.180;2024-02-16T14:16:53;2.20;;;1.52;;
11935;SDS011;6027;48.576;9.180;2024-02-16T14:19:18;4.63;;;1.80;;
11935;SDS011;6027;48.576;9.180;2024-02-16T14:21:44;5.38;;;1.63;;
11935;SDS011;6027;48.576;9.180;2024-02-16T14:24:12;5.07;;;2.00;;
11935;SDS011;6027;48.576;9.180;2024-02-16T14:26:37;4.60;;;1.92;;
11935;SDS011;6027;48.576;9.180;2024-02-16T14:29:06;5.45;;;1.70;;
11935;SDS011;6027;48.576;9.180;2024-02-16T14:31:31;6.38;;;1.85;;
11935;SDS011;6027;48.576;9.180;2024-02-16T14:33:58;5.57;;;1.80;;
11935;SDS011;6027;48.576;9.180;2024-02-16T14:36:24;3.60;;;1.80;;
11935;SDS011;6027;48.576;9.180;2024-02-16T14:38:49;4.70;;;2.00;;
11935;SDS011;6027;48.576;9.180;2024-02-16T14:41:15;5.13;;;1.83;;
11935;SDS011;6027;48.576;9.180;2024-02-16T14:43:41;3.70;;;1.40;;
11935;SDS011;6027;48.576;9.180;2024-02-16T14:46:08;6.32;;;1.90;;
11935;SDS011;6027;48.576;9.180;2024-02-16T14:48:34;3.03;;;1.50;;
11935;SDS011;6027;48.576;9.180;2024-02-16T14:51:03;7.80;;;1.80;;
11935;SDS011;6027;48.576;9.180;2024-02-16T14:53:29;3.97;;;1.40;;
11935;SDS011;6027;48.576;9.180;2024-02-16T14:56:01;4.95;;;1.42;;
11935;SDS011;6027;48.576;9.180;2024-02-16T14:58:30;4.10;;;1.63;;
11935;SDS011;6027;48.576;9.180;2024-02-16T15:00:56;6.82;;;1.88;;
11935;SDS011;6027;48.576;9.180;2024-02-16T15:03:22;7.20;;;1.85;;